Time;durP1;ratioP1;P1;durP2;ratioP2;P2;SDS_P1;SDS_P2;PMS_P1;PMS_P2;Temp;Humidity;BMP_temperature;BMP_pressure;BME280_temperature;BME280_humidity;BME280_pressure;Samples;Min_cycle;Max_cycle;Signal;HPM_P1;HPM_P2
2022/05/06 00:00:13;;;;;;;32.47;18.52;;;8.10;99.90;;;;;;5032397;28;20048;-91
2022/05/06 00:02:40;;;;;;;37.78;19.17;;;8.10;99.90;;;;;;5032866;28;20056;-83
2022/05/06 00:05:07;;;;;;;33.65;18.45;;;8.00;99.90;;;;;;5032725;28;20054;-84
2022/05/06 00:07:33;;;;;;;38.40;18.33;;;8.00;99.90;;;;;;5032742;28;20061;-83
2022/05/06 00:10:01;;;;;;;29.85;17.58;;;8.20;99.90;;;;;;5049175;28;20052;-83
2022/05/06 00:12:27;;;;;;;34.85;18.65;;;7.90;99.90;;;;;;5048782;28;20052;-83
2022/05/06 00:14:53;;;;;;;33.17;18.08;;;7.90;99.90;;;;;;5033173;28;20409;-84
2022/05/06 00:17:19;;;;;;;33.97;18.52;;;8.00;99.90;;;;;;5033543;28;20081;-84
2022/05/06 00:19:45;;;;;;;33.88;18.35;;;7.80;99.90;;;;;;5032405;28;20494;-83
2022/05/06 00:22:12;;;;;;;35.67;18.73;;;7.80;99.90;;;;;;5049115;28;20128;-83
2022/05/06 00:24:38;;;;;;;31.77;17.25;;;7.80;99.90;;;;;;5032260;28;20456;-83
2022/05/06 00:27:04;;;;;;;32.40;17.77;;;7.80;99.90;;;;;;5033360;28;20041;-83
2022/05/06 00:29:30;;;;;;;36.10;19.02;;;7.80;99.90;;;;;;5032040;28;20053;-84
2022/05/06 00:31:56;;;;;;;39.40;19.13;;;7.90;99.90;;;;;;5033294;28;20051;-86
2022/05/06 00:34:22;;;;;;;38.47;17.35;;;8.10;99.90;;;;;;5032183;28;20037;-84
2022/05/06 00:36:48;;;;;;;34.97;18.02;;;7.70;99.90;;;;;;5033064;28;20049;-84
2022/05/06 00:39:13;;;;;;;30.60;16.27;;;7.90;99.90;;;;;;5032891;28;20056;-84
2022/05/06 00:41:40;;;;;;;31.85;16.77;;;7.60;99.90;;;;;;5031675;28;20179;-83
2022/05/06 00:44:06;;;;;;;31.67;17.98;;;7.70;99.90;;;;;;5032853;28;20088;-84
2022/05/06 00:46:36;;;;;;;35.50;16.85;;;7.60;99.90;;;;;;5031844;28;20148;-83
2022/05/06 00:49:02;;;;;;;26.85;14.63;;;7.60;99.90;;;;;;5049699;28;20107;-83
2022/05/06 00:51:28;;;;;;;36.83;16.33;;;7.60;99.90;;;;;;5035326;28;20044;-83
2022/05/06 00:53:55;;;;;;;29.15;15.88;;;7.60;99.90;;;;;;5035228;28;20041;-83
2022/05/06 00:56:24;;;;;;;28.05;15.52;;;7.60;99.90;;;;;;5035220;28;20402;-83
2022/05/06 00:58:52;;;;;;;29.80;16.35;;;7.80;99.90;;;;;;5051449;28;20053;-84
2022/05/06 01:01:18;;;;;;;35.95;17.05;;;7.60;99.90;;;;;;5051451;28;20041;-84
2022/05/06 01:03:44;;;;;;;31.13;16.83;;;7.60;99.90;;;;;;5052744;28;20045;-84
2022/05/06 01:06:13;;;;;;;30.77;16.52;;;7.50;99.90;;;;;;5034540;28;20048;-83
2022/05/06 01:08:39;;;;;;;29.95;15.38;;;7.50;99.90;;;;;;5052699;28;20074;-88
2022/05/06 01:11:06;;;;;;;31.75;16.92;;;7.50;99.90;;;;;;5049767;28;20113;-84
2022/05/06 01:13:39;;;;;;;36.35;17.30;;;7.50;99.90;;;;;;5034843;28;20053;-84
2022/05/06 01:16:05;;;;;;;30.02;18.00;;;7.50;99.90;;;;;;5035292;28;20076;-83
2022/05/06 01:18:30;;;;;;;40.13;18.08;;;7.70;99.90;;;;;;5034662;28;20487;-84
2022/05/06 01:21:00;;;;;;;37.53;17.85;;;7.50;99.90;;;;;;5017894;28;20103;-83
2022/05/06 01:23:26;;;;;;;38.45;18.23;;;7.50;99.90;;;;;;5034828;28;20135;-83
2022/05/06 01:25:51;;;;;;;40.72;18.90;;;7.50;99.90;;;;;;5034856;28;20140;-83
2022/05/06 01:28:21;;;;;;;39.30;18.65;;;7.50;99.90;;;;;;5034513;28;20433;-84
2022/05/06 01:30:47;;;;;;;36.85;17.83;;;7.50;99.90;;;;;;5052512;28;20045;-83
2022/05/06 01:33:19;;;;;;;33.03;18.52;;;7.40;99.90;;;;;;5018277;28;20072;-83
2022/05/06 01:35:47;;;;;;;37.65;18.98;;;7.30;99.90;;;;;;5034320;28;20066;-84
2022/05/06 01:38:26;;;;;;;30.13;17.30;;;7.50;99.90;;;;;;5034580;28;20446;-83
2022/05/06 01:41:02;;;;;;;28.95;16.58;;;7.30;99.90;;;;;;5017729;28;20045;-84
2022/05/06 01:43:36;;;;;;;31.25;15.80;;;7.40;99.90;;;;;;5034648;28;20128;-83
2022/05/06 01:46:04;;;;;;;25.58;14.32;;;7.40;99.90;;;;;;5034910;28;20056;-83
2022/05/06 01:48:31;;;;;;;26.63;13.88;;;7.40;99.90;;;;;;5052084;28;20414;-83
2022/05/06 01:50:58;;;;;;;27.40;15.02;;;7.40;99.90;;;;;;5034516;28;20064;-83
2022/05/06 01:53:24;;;;;;;31.55;16.73;;;7.40;99.90;;;;;;5052081;28;20194;-83
2022/05/06 01:55:50;;;;;;;34.65;17.35;;;7.40;99.90;;;;;;5034619;28;20478;-83
2022/05/06 01:58:16;;;;;;;34.35;17.13;;;7.30;99.90;;;;;;5034648;28;20105;-83
2022/05/06 02:00:42;;;;;;;30.58;15.75;;;7.30;99.90;;;;;;5052090;28;20506;-83
2022/05/06 02:05:16;;;;;;;32.85;17.02;;;7.20;99.90;;;;;;5052124;28;20041;-83
2022/05/06 02:05:54;;;;;;;40.65;19.10;;;7.10;99.90;;;;;;5034325;28;20057;-83
2022/05/06 02:08:19;;;;;;;32.85;17.92;;;7.00;99.90;;;;;;5051687;28;20044;-83
2022/05/06 02:10:45;;;;;;;34.10;18.17;;;7.30;99.90;;;;;;5034318;28;20053;-83
2022/05/06 02:13:11;;;;;;;37.47;17.67;;;7.00;99.90;;;;;;5017919;28;20144;-83
2022/05/06 02:15:38;;;;;;;38.88;17.10;;;7.20;99.90;;;;;;5034440;28;20156;-88
2022/05/06 02:18:04;;;;;;;42.00;18.80;;;7.00;99.90;;;;;;5054246;28;20081;-83
2022/05/06 02:20:30;;;;;;;37.72;18.17;;;6.90;99.90;;;;;;5055477;28;20045;-82
2022/05/06 02:22:56;;;;;;;37.70;18.52;;;6.90;99.90;;;;;;5055458;28;20591;-83
2022/05/06 02:25:22;;;;;;;39.47;19.48;;;6.80;99.90;;;;;;5021569;28;20037;-83
2022/05/06 02:27:48;;;;;;;40.00;18.73;;;6.80;99.90;;;;;;5055570;28;20037;-84
2022/05/06 02:33:13;;;;;;;40.35;19.02;;;6.70;99.90;;;;;;5037450;28;20059;-83
2022/05/06 02:35:40;;;;;;;35.65;18.88;;;6.60;99.90;;;;;;5037123;28;20503;-87
2022/05/06 02:38:08;;;;;;;40.05;19.52;;;6.80;99.90;;;;;;5037794;28;20049;-83
2022/05/06 02:40:38;;;;;;;44.80;19.60;;;6.60;99.90;;;;;;5055387;28;20056;-83
2022/05/06 02:43:05;;;;;;;38.17;19.67;;;6.70;99.90;;;;;;5037585;28;20422;-83
2022/05/06 02:45:31;;;;;;;40.80;19.52;;;6.50;99.90;;;;;;5055211;28;20402;-83
2022/05/06 02:47:57;;;;;;;48.70;20.20;;;6.40;99.90;;;;;;5033926;28;20477;-83
2022/05/06 02:50:24;;;;;;;44.55;20.70;;;6.60;99.90;;;;;;5034883;28;20057;-82
2022/05/06 02:52:49;;;;;;;45.45;20.27;;;6.40;99.90;;;;;;5035353;28;20483;-83
2022/05/06 02:55:15;;;;;;;48.88;21.40;;;6.40;99.90;;;;;;5035088;28;20081;-83
2022/05/06 02:57:41;;;;;;;48.50;20.40;;;6.40;99.90;;;;;;5034305;28;20404;-83
2022/05/06 03:00:08;;;;;;;46.40;20.60;;;6.30;99.90;;;;;;5034850;28;20037;-83
2022/05/06 03:02:33;;;;;;;49.08;20.42;;;6.30;99.90;;;;;;5034809;28;20136;-83
2022/05/06 03:04:59;;;;;;;44.90;19.45;;;6.30;99.90;;;;;;5033697;28;20089;-82
2022/05/06 03:07:25;;;;;;;41.80;19.25;;;6.30;99.90;;;;;;5017330;28;20414;-83
2022/05/06 03:09:52;;;;;;;38.70;18.92;;;6.30;99.90;;;;;;5034789;28;20159;-83
2022/05/06 03:12:19;;;;;;;42.33;18.70;;;6.30;99.90;;;;;;5034694;28;20057;-83
2022/05/06 03:14:46;;;;;;;36.35;17.45;;;6.20;99.90;;;;;;5033867;28;20049;-83
2022/05/06 03:17:12;;;;;;;41.13;18.48;;;6.20;99.90;;;;;;5033496;28;20037;-82
2022/05/06 03:19:38;;;;;;;43.53;19.73;;;6.20;99.90;;;;;;5016855;28;20052;-84
2022/05/06 03:22:06;;;;;;;42.20;19.23;;;6.20;99.90;;;;;;5033555;28;20106;-84
2022/05/06 03:24:32;;;;;;;48.97;19.33;;;6.10;99.90;;;;;;5033716;28;20535;-83
2022/05/06 03:27:00;;;;;;;40.65;19.08;;;6.10;99.90;;;;;;5033517;28;20088;-83
2022/05/06 03:29:25;;;;;;;43.92;19.30;;;6.10;99.90;;;;;;5032967;28;20057;-84
2022/05/06 03:31:53;;;;;;;41.95;18.88;;;6.00;99.90;;;;;;5033031;28;20068;-83
2022/05/06 03:34:20;;;;;;;45.13;19.33;;;6.00;99.90;;;;;;5016750;28;20053;-83
2022/05/06 03:36:46;;;;;;;53.13;19.92;;;6.20;99.90;;;;;;5034328;28;20119;-83
2022/05/06 03:39:12;;;;;;;51.70;20.55;;;6.00;99.90;;;;;;5032852;28;20057;-83
2022/05/06 03:41:38;;;;;;;38.72;18.75;;;6.00;99.90;;;;;;5033850;28;20050;-83
2022/05/06 03:44:06;;;;;;;40.08;18.92;;;6.20;99.90;;;;;;5033092;28;20127;-83
2022/05/06 03:46:33;;;;;;;50.15;19.67;;;5.90;99.90;;;;;;5033109;28;20132;-83
2022/05/06 03:49:01;;;;;;;41.90;18.40;;;6.00;99.90;;;;;;5032591;28;20148;-83
2022/05/06 03:51:31;;;;;;;48.70;19.60;;;5.90;99.90;;;;;;5034181;28;20046;-82
2022/05/06 03:53:57;;;;;;;42.15;18.10;;;6.00;99.90;;;;;;5034121;28;20049;-83
2022/05/06 03:56:24;;;;;;;32.80;16.08;;;6.00;99.90;;;;;;5033144;28;20041;-84
2022/05/06 03:58:53;;;;;;;29.77;13.77;;;5.90;99.90;;;;;;5033977;28;20049;-83
2022/05/06 04:01:19;;;;;;;34.63;15.13;;;6.00;99.90;;;;;;5033793;28;20041;-83
2022/05/06 04:03:47;;;;;;;36.65;16.17;;;6.00;99.90;;;;;;5049034;28;20037;-83
2022/05/06 04:06:16;;;;;;;32.85;15.57;;;6.00;99.90;;;;;;5032933;28;20056;-83
2022/05/06 04:08:42;;;;;;;44.42;16.17;;;6.00;99.90;;;;;;5033719;28;20505;-83
2022/05/06 04:11:10;;;;;;;36.72;15.85;;;6.00;99.90;;;;;;5016336;28;20049;-83
2022/05/06 04:13:35;;;;;;;36.85;16.13;;;6.00;99.90;;;;;;5049006;28;20061;-92
2022/05/06 04:16:04;;;;;;;39.47;16.20;;;5.90;99.90;;;;;;5033690;28;20411;-83
2022/05/06 04:18:31;;;;;;;35.88;16.20;;;5.90;99.90;;;;;;5032275;28;20522;-83
2022/05/06 04:23:41;;;;;;;35.38;16.60;;;6.00;99.90;;;;;;5033654;28;20053;-83
2022/05/06 04:26:12;;;;;;;30.40;15.05;;;6.00;99.90;;;;;;5049354;28;20054;-84
2022/05/06 04:28:39;;;;;;;35.00;17.35;;;6.00;99.90;;;;;;5032649;28;20106;-83
2022/05/06 04:31:07;;;;;;;39.70;18.88;;;6.20;99.90;;;;;;5033034;28;20089;-83
2022/05/06 04:33:34;;;;;;;38.95;19.05;;;6.10;99.90;;;;;;5033012;28;20049;-83
2022/05/06 04:36:00;;;;;;;48.15;20.17;;;6.10;99.90;;;;;;5033781;28;20057;-83
2022/05/06 04:38:27;;;;;;;43.25;19.67;;;6.20;99.90;;;;;;5032759;28;20049;-83
2022/05/06 04:40:58;;;;;;;41.25;20.85;;;6.20;99.90;;;;;;5031679;28;20050;-83
2022/05/06 04:43:25;;;;;;;55.83;24.58;;;6.30;99.90;;;;;;5032991;28;20119;-83
2022/05/06 04:45:51;;;;;;;56.88;25.35;;;6.50;99.90;;;;;;5036866;28;20072;-82
2022/05/06 04:48:17;;;;;;;108.10;30.15;;;6.80;99.90;;;;;;5035877;28;20048;-83
2022/05/06 04:50:44;;;;;;;367.05;40.42;;;6.90;99.90;;;;;;5036691;28;20127;-82
2022/05/06 04:53:11;;;;;;;292.90;35.75;;;7.00;99.90;;;;;;5053741;28;20037;-84
2022/05/06 04:55:46;;;;;;;295.73;35.17;;;7.10;99.90;;;;;;5019364;28;20051;-83
2022/05/06 04:58:13;;;;;;;332.27;37.22;;;7.20;99.90;;;;;;5053170;28;20048;-83
2022/05/06 05:00:38;;;;;;;283.45;30.70;;;7.30;99.90;;;;;;5035743;28;20048;-82
2022/05/06 05:03:04;;;;;;;532.80;42.42;;;7.50;99.90;;;;;;5035053;28;20441;-82
2022/05/06 05:05:30;;;;;;;406.48;35.70;;;7.80;99.90;;;;;;5053155;28;20044;-83
2022/05/06 05:07:56;;;;;;;574.05;44.35;;;7.70;99.90;;;;;;5035184;28;20360;-83
2022/05/06 05:10:25;;;;;;;291.08;32.10;;;7.80;99.90;;;;;;5035075;28;20135;-84
2022/05/06 05:12:50;;;;;;;342.25;33.80;;;7.80;99.90;;;;;;5035422;28;20087;-83
2022/05/06 05:15:16;;;;;;;1999.90;232.45;;;8.20;99.90;;;;;;5052724;28;20076;-83
2022/05/06 05:17:45;;;;;;;1999.90;211.35;;;8.00;99.90;;;;;;5050802;28;20550;-83
2022/05/06 05:20:15;;;;;;;1999.90;318.95;;;8.10;99.90;;;;;;5052760;28;20072;-83
2022/05/06 05:22:41;;;;;;;452.90;35.08;;;8.50;99.90;;;;;;5052520;28;20029;-84
2022/05/06 05:25:08;;;;;;;447.83;35.25;;;8.20;99.90;;;;;;5034921;28;20080;-84
2022/05/06 05:27:36;;;;;;;377.92;31.55;;;8.30;99.90;;;;;;5034998;28;20045;-84
2022/05/06 05:30:04;;;;;;;383.75;30.58;;;8.40;99.90;;;;;;5052785;28;20179;-84
2022/05/06 05:32:30;;;;;;;373.90;28.55;;;8.50;99.90;;;;;;5034965;28;20094;-83
2022/05/06 05:34:55;;;;;;;461.10;33.72;;;8.60;99.90;;;;;;5052530;28;20052;-84
2022/05/06 05:37:22;;;;;;;282.25;25.10;;;8.70;99.90;;;;;;5034309;28;20048;-83
2022/05/06 05:39:49;;;;;;;337.92;28.40;;;8.80;99.90;;;;;;5018393;28;20369;-83
2022/05/06 05:42:22;;;;;;;439.88;31.13;;;8.90;99.90;;;;;;5051477;28;20470;-86
2022/05/06 05:50:18;;;;;;;163.18;22.80;;;9.30;99.90;;;;;;5052386;28;20136;-83
2022/05/06 05:52:44;;;;;;;326.08;29.08;;;9.40;99.90;;;;;;5054914;28;20050;-84
2022/05/06 05:55:11;;;;;;;175.00;25.63;;;9.60;99.90;;;;;;5037965;28;20064;-84
2022/05/06 05:57:36;;;;;;;171.10;30.08;;;9.70;99.90;;;;;;5055391;28;20041;-83
2022/05/06 06:00:05;;;;;;;127.10;26.13;;;9.70;99.90;;;;;;5038194;28;20048;-83
2022/05/06 06:02:31;;;;;;;113.57;26.27;;;9.80;99.90;;;;;;5056160;28;20379;-82
2022/05/06 06:04:57;;;;;;;198.85;28.70;;;9.80;99.90;;;;;;5055933;28;20053;-87
2022/05/06 06:07:23;;;;;;;93.40;26.20;;;9.80;99.90;;;;;;5038285;28;20053;-84
2022/05/06 06:09:48;;;;;;;178.48;29.67;;;9.80;99.90;;;;;;5054574;28;20037;-83
2022/05/06 06:12:14;;;;;;;236.52;30.45;;;9.90;99.90;;;;;;5055764;28;20036;-84
2022/05/06 06:14:40;;;;;;;99.10;26.55;;;10.20;99.90;;;;;;5056051;28;20098;-85
2022/05/06 06:17:06;;;;;;;112.65;26.75;;;10.10;99.90;;;;;;5055907;28;20455;-83
2022/05/06 06:19:31;;;;;;;114.40;28.05;;;10.10;99.90;;;;;;5038344;28;20037;-84
2022/05/06 06:21:57;;;;;;;163.98;28.30;;;10.30;99.90;;;;;;5054811;28;20040;-83
2022/05/06 06:24:23;;;;;;;139.73;27.27;;;10.20;99.90;;;;;;5054475;28;20040;-85
2022/05/06 06:26:48;;;;;;;118.75;27.08;;;10.70;99.90;;;;;;5021378;28;20497;-83
2022/05/06 06:29:14;;;;;;;158.05;26.95;;;10.40;99.90;;;;;;5038121;28;20553;-84
2022/05/06 06:31:39;;;;;;;122.72;26.63;;;10.60;99.90;;;;;;5054706;28;20041;-84
2022/05/06 06:34:05;;;;;;;128.02;28.63;;;10.50;99.90;;;;;;5021612;28;20044;-82
2022/05/06 06:36:31;;;;;;;148.25;29.63;;;10.60;99.90;;;;;;5055368;28;20386;-83
2022/05/06 06:38:56;;;;;;;114.25;29.05;;;10.60;99.90;;;;;;5054485;28;20453;-84
2022/05/06 06:41:25;;;;;;;137.38;28.90;;;10.70;99.90;;;;;;5037399;28;20413;-83
2022/05/06 06:43:51;;;;;;;160.27;31.75;;;10.70;99.90;;;;;;5055460;28;20040;-85
2022/05/06 06:46:17;;;;;;;73.55;27.75;;;10.70;99.90;;;;;;5055739;28;20171;-84
2022/05/06 06:48:43;;;;;;;147.98;30.10;;;10.90;99.90;;;;;;5055374;28;20052;-83
2022/05/06 06:51:09;;;;;;;176.35;31.88;;;11.00;99.90;;;;;;5055571;28;20454;-84
2022/05/06 06:53:35;;;;;;;114.05;30.38;;;11.10;99.90;;;;;;5037606;28;20052;-84
2022/05/06 06:56:01;;;;;;;116.95;33.03;;;11.40;99.90;;;;;;5054815;28;20163;-84
2022/05/06 06:58:26;;;;;;;100.60;29.02;;;11.50;99.90;;;;;;5037564;28;20045;-84
2022/05/06 07:00:53;;;;;;;105.32;32.10;;;11.40;99.90;;;;;;5037398;28;20364;-83
2022/05/06 07:03:20;;;;;;;140.52;34.58;;;11.70;99.90;;;;;;5036549;28;20045;-83
2022/05/06 07:14:00;;;;;;;72.80;31.90;;;11.80;99.90;;;;;;5054943;28;20371;-83
2022/05/06 07:16:28;;;;;;;69.95;31.35;;;11.80;99.90;;;;;;5054544;28;20107;-85
2022/05/06 07:18:54;;;;;;;65.38;30.48;;;12.00;99.90;;;;;;5054643;28;20040;-86
2022/05/06 07:21:20;;;;;;;65.43;31.52;;;12.10;99.90;;;;;;5054589;28;20048;-85
2022/05/06 07:23:45;;;;;;;60.35;30.10;;;12.10;99.90;;;;;;5054423;28;20041;-83
2022/05/06 07:26:12;;;;;;;48.67;26.17;;;12.30;99.90;;;;;;5054655;28;20048;-84
2022/05/06 07:28:38;;;;;;;52.75;25.20;;;12.40;99.90;;;;;;5054438;28;20051;-90
2022/05/06 07:31:07;;;;;;;53.55;25.63;;;12.50;99.90;;;;;;5020452;28;20433;-84
2022/05/06 07:33:32;;;;;;;46.97;24.48;;;12.80;99.90;;;;;;5054299;28;20037;-84
2022/05/06 07:35:59;;;;;;;50.58;25.33;;;12.70;99.90;;;;;;5053286;28;20390;-84
2022/05/06 07:38:25;;;;;;;45.95;23.45;;;12.80;99.90;;;;;;5054665;28;20045;-83
2022/05/06 07:40:50;;;;;;;45.83;22.40;;;13.00;99.90;;;;;;5020209;28;20041;-84
2022/05/06 07:43:16;;;;;;;42.25;21.55;;;13.10;99.90;;;;;;5054519;28;20040;-85
2022/05/06 07:45:42;;;;;;;40.60;20.83;;;13.20;99.90;;;;;;5035981;28;20381;-84
2022/05/06 07:48:10;;;;;;;48.53;22.45;;;13.50;99.90;;;;;;5052992;28;20056;-83
2022/05/06 07:50:44;;;;;;;38.85;20.38;;;13.60;99.90;;;;;;5053938;28;20052;-83
2022/05/06 07:53:13;;;;;;;38.53;18.60;;;13.80;99.90;;;;;;5019985;28;20044;-84
2022/05/06 07:55:39;;;;;;;39.83;19.65;;;13.80;99.90;;;;;;5054076;28;20075;-84
2022/05/06 07:58:05;;;;;;;36.90;20.20;;;13.90;99.90;;;;;;5036334;28;20049;-88
2022/05/06 08:00:34;;;;;;;43.42;21.00;;;14.10;99.90;;;;;;5052884;28;20124;-84
2022/05/06 08:05:47;;;;;;;44.58;22.75;;;14.40;99.90;;;;;;5036147;28;20462;-83
2022/05/06 08:08:13;;;;;;;42.75;21.90;;;14.50;99.90;;;;;;5036345;28;20052;-84
2022/05/06 08:10:39;;;;;;;45.47;22.92;;;14.50;99.90;;;;;;5035388;28;20056;-84
2022/05/06 08:13:06;;;;;;;43.15;21.48;;;14.70;99.90;;;;;;5036203;28;20033;-84
2022/05/06 08:15:32;;;;;;;41.67;20.92;;;14.70;99.90;;;;;;5035569;28;20043;-85
2022/05/06 08:18:00;;;;;;;33.50;18.45;;;14.90;99.90;;;;;;5035995;28;20095;-84
2022/05/06 08:20:27;;;;;;;34.30;18.30;;;15.00;99.90;;;;;;5018913;28;20048;-84
2022/05/06 08:22:52;;;;;;;30.83;17.83;;;15.10;99.90;;;;;;5052358;28;20539;-84
2022/05/06 08:25:18;;;;;;;26.20;15.45;;;15.40;99.90;;;;;;5035797;28;20041;-84
2022/05/06 08:27:44;;;;;;;27.75;15.80;;;15.60;99.90;;;;;;5018826;28;20271;-85
2022/05/06 08:30:12;;;;;;;26.52;16.20;;;15.70;99.90;;;;;;5019279;28;20382;-85
2022/05/06 08:32:41;;;;;;;25.15;14.90;;;16.00;99.90;;;;;;5035469;28;20094;-85
2022/05/06 08:35:08;;;;;;;23.92;15.38;;;16.30;99.90;;;;;;5017879;28;20061;-84
2022/05/06 08:37:45;;;;;;;24.83;14.02;;;16.20;99.90;;;;;;5019209;28;20045;-84
2022/05/06 08:40:29;;;;;;;22.45;13.20;;;16.70;99.90;;;;;;5019023;28;20083;-85
2022/05/06 08:42:55;;;;;;;20.20;13.30;;;16.80;99.90;;;;;;5019048;28;20190;-86
2022/05/06 08:50:54;;;;;;;14.38;10.85;;;17.80;99.90;;;;;;5052958;28;20056;-85
2022/05/06 08:53:26;;;;;;;12.13;9.98;;;18.10;99.90;;;;;;5018512;28;20052;-87
2022/05/06 08:55:55;;;;;;;13.30;10.13;;;19.30;99.90;;;;;;5052062;28;20053;-85
2022/05/06 08:58:24;;;;;;;11.85;9.70;;;20.20;99.90;;;;;;5052734;28;20036;-86
2022/05/06 09:00:59;;;;;;;14.15;9.90;;;21.10;99.90;;;;;;5034286;28;20132;-85
2022/05/06 09:03:28;;;;;;;9.95;8.55;;;21.80;99.90;;;;;;5035258;28;20045;-84
2022/05/06 09:05:58;;;;;;;10.85;9.20;;;22.40;99.90;;;;;;5052617;28;20080;-84
2022/05/06 09:08:53;;;;;;;11.10;9.20;;;22.90;99.90;;;;;;5052599;28;20041;-86
2022/05/06 09:14:05;;;;;;;9.00;8.15;;;24.00;98.80;;;;;;5034901;28;20058;-86
2022/05/06 09:16:39;;;;;;;13.25;9.15;;;24.60;92.80;;;;;;5018527;28;20126;-88
2022/05/06 09:19:20;;;;;;;10.80;8.63;;;24.90;88.10;;;;;;5027483;28;20045;-89
2022/05/06 09:21:59;;;;;;;9.80;8.90;;;25.30;85.10;;;;;;5026502;28;20124;-85
2022/05/06 09:24:28;;;;;;;7.97;7.18;;;25.70;71.60;;;;;;5034223;28;20088;-84
2022/05/06 09:27:09;;;;;;;7.82;7.03;;;25.80;72.00;;;;;;5056922;28;20037;-84
2022/05/06 09:29:41;;;;;;;7.57;6.85;;;25.80;72.00;;;;;;5041481;28;20522;-82
2022/05/06 09:32:26;;;;;;;6.72;6.13;;;25.70;69.70;;;;;;5050893;28;20037;-84
2022/05/06 09:34:59;;;;;;;6.57;5.90;;;25.90;62.20;;;;;;5039931;28;20545;-83
2022/05/06 09:37:32;;;;;;;6.15;5.55;;;26.10;64.40;;;;;;5042490;28;20037;-83
2022/05/06 09:40:03;;;;;;;6.03;5.50;;;26.30;60.30;;;;;;5043218;28;20144;-84
2022/05/06 09:42:28;;;;;;;6.07;5.55;;;26.70;59.00;;;;;;5061891;28;20052;-86
2022/05/06 09:44:54;;;;;;;5.72;5.22;;;27.10;57.70;;;;;;5061099;28;20049;-86
2022/05/06 09:47:20;;;;;;;6.35;4.95;;;27.40;55.80;;;;;;5059599;28;20041;-85
2022/05/06 09:49:47;;;;;;;4.68;4.20;;;27.50;54.40;;;;;;5058923;28;20044;-85
2022/05/06 09:52:16;;;;;;;5.43;4.93;;;27.20;55.00;;;;;;5059243;28;20048;-85
2022/05/06 09:54:44;;;;;;;5.18;4.68;;;26.40;55.80;;;;;;5058994;28;20486;-88
2022/05/06 09:57:12;;;;;;;4.85;4.35;;;26.40;55.80;;;;;;5041455;28;20175;-85
2022/05/06 09:59:38;;;;;;;5.72;4.40;;;26.50;55.40;;;;;;5041271;28;20483;-85
2022/05/06 10:02:05;;;;;;;5.10;4.60;;;26.40;55.20;;;;;;5041180;28;20063;-85
2022/05/06 10:04:31;;;;;;;4.40;4.00;;;26.70;55.40;;;;;;5059041;28;20206;-85
2022/05/06 10:07:00;;;;;;;4.82;4.03;;;26.70;53.30;;;;;;5024715;28;20051;-86
2022/05/06 10:09:34;;;;;;;5.30;4.45;;;26.20;53.90;;;;;;5041385;28;20394;-83
2022/05/06 10:12:02;;;;;;;5.20;3.92;;;25.60;54.90;;;;;;5058936;28;20127;-85
2022/05/06 10:14:29;;;;;;;4.65;3.72;;;25.30;55.70;;;;;;5059218;28;20505;-86
2022/05/06 10:16:55;;;;;;;5.25;4.10;;;25.30;57.10;;;;;;5041446;28;20041;-85
2022/05/06 10:19:37;;;;;;;5.70;3.92;;;25.20;56.90;;;;;;5024885;28;20055;-84
2022/05/06 10:22:04;;;;;;;6.05;3.70;;;25.60;56.70;;;;;;5059111;28;20422;-84
2022/05/06 10:24:49;;;;;;;3.42;3.13;;;26.60;53.50;;;;;;5023715;28;20052;-85
2022/05/06 10:33:17;;;;;;;4.97;3.60;;;28.00;47.60;;;;;;5035001;28;20056;-85
2022/05/06 10:35:45;;;;;;;4.68;3.55;;;28.20;48.40;;;;;;5040843;28;20041;-86
2022/05/06 10:38:19;;;;;;;4.38;3.97;;;28.60;47.40;;;;;;5055642;28;20048;-86
2022/05/06 10:40:53;;;;;;;5.20;4.70;;;28.60;47.10;;;;;;5055050;28;20086;-86
2022/05/06 10:43:45;;;;;;;5.45;4.80;;;28.30;48.50;;;;;;5055498;28;20386;-85
2022/05/06 10:46:10;;;;;;;4.60;4.20;;;28.70;48.00;;;;;;5037658;28;20044;-87
2022/05/06 10:48:36;;;;;;;4.85;4.20;;;29.10;46.60;;;;;;5055435;28;20049;-86
2022/05/06 10:51:22;;;;;;;5.72;5.13;;;29.30;46.30;;;;;;5050208;28;20049;-86
2022/05/06 10:53:48;;;;;;;5.35;4.85;;;29.10;45.60;;;;;;5035790;28;20038;-85
2022/05/06 10:56:16;;;;;;;4.50;4.10;;;29.00;46.10;;;;;;5034308;28;20045;-85
2022/05/06 10:58:42;;;;;;;5.05;4.38;;;29.00;45.10;;;;;;5035247;28;20076;-86
2022/05/06 11:01:17;;;;;;;4.70;4.30;;;28.60;45.80;;;;;;5020217;28;20049;-84
2022/05/06 11:03:55;;;;;;;5.72;4.22;;;28.80;45.30;;;;;;5054757;28;20470;-87
2022/05/06 11:06:24;;;;;;;3.95;3.60;;;29.20;45.80;;;;;;5021166;28;20048;-85
2022/05/06 11:08:50;;;;;;;4.30;3.90;;;29.40;44.10;;;;;;5020779;28;20048;-86
2022/05/06 11:11:18;;;;;;;6.40;4.32;;;29.40;44.00;;;;;;5037030;28;20048;-85
2022/05/06 11:13:47;;;;;;;4.78;3.85;;;29.50;43.10;;;;;;5037209;28;20044;-85
2022/05/06 11:16:14;;;;;;;3.70;3.10;;;29.10;43.40;;;;;;5020383;28;20045;-87
2022/05/06 11:18:48;;;;;;;3.22;2.92;;;28.50;44.00;;;;;;5037476;28;20047;-83
2022/05/06 11:21:23;;;;;;;3.63;3.03;;;28.40;44.30;;;;;;5054767;28;20040;-87
2022/05/06 11:23:50;;;;;;;5.82;2.95;;;28.70;42.30;;;;;;5020853;28;20044;-84
2022/05/06 11:26:29;;;;;;;2.65;2.45;;;28.80;43.00;;;;;;5053583;28;20041;-84
2022/05/06 11:29:05;;;;;;;5.00;2.73;;;29.20;42.10;;;;;;5053387;28;20049;-86
2022/05/06 11:31:34;;;;;;;4.05;2.97;;;29.70;41.80;;;;;;5019984;28;20052;-85
2022/05/06 11:34:05;;;;;;;2.88;2.67;;;29.90;40.30;;;;;;5054573;28;20041;-84
2022/05/06 11:36:30;;;;;;;;;;;29.80;40.30;;;;;;5054997;28;20033;-85
2022/05/06 11:38:56;;;;;;;3.25;2.40;;;29.90;39.50;;;;;;5020401;28;20358;-88
2022/05/06 11:41:24;;;;;;;4.68;2.65;;;29.70;41.00;;;;;;5053981;28;20037;-85
2022/05/06 11:43:49;;;;;;;3.85;2.50;;;29.70;40.10;;;;;;5053160;28;20048;-85
2022/05/06 11:49:05;;;;;;;3.10;2.65;;;29.50;39.90;;;;;;5035927;28;20558;-85
2022/05/06 11:51:34;;;;;;;4.20;2.85;;;29.60;39.90;;;;;;5054636;28;20116;-86
2022/05/06 11:54:01;;;;;;;2.88;2.58;;;29.60;40.60;;;;;;5053060;28;20536;-87
2022/05/06 11:56:28;;;;;;;5.32;2.92;;;29.90;40.60;;;;;;5054258;28;20049;-86
2022/05/06 11:58:57;;;;;;;2.75;2.30;;;30.30;39.80;;;;;;5036823;28;20082;-86
2022/05/06 12:01:26;;;;;;;3.22;2.63;;;30.70;39.60;;;;;;5036363;28;20474;-85
2022/05/06 12:03:52;;;;;;;4.07;2.45;;;30.90;38.10;;;;;;5035505;28;20124;-86
2022/05/06 12:06:25;;;;;;;3.08;2.10;;;31.00;38.50;;;;;;5036599;28;20041;-86
2022/05/06 12:08:51;;;;;;;2.53;2.17;;;31.20;38.50;;;;;;5036730;28;20040;-85
2022/05/06 12:11:24;;;;;;;3.63;2.17;;;31.10;37.70;;;;;;5037377;28;20106;-85
2022/05/06 12:13:51;;;;;;;3.50;2.80;;;31.00;37.80;;;;;;5039344;28;20050;-84
2022/05/06 12:16:16;;;;;;;5.72;2.78;;;30.70;38.10;;;;;;5023459;28;20040;-86
2022/05/06 12:18:58;;;;;;;4.28;2.72;;;30.60;39.10;;;;;;5037972;28;20049;-86
2022/05/06 12:21:26;;;;;;;4.35;3.35;;;30.60;38.70;;;;;;5037095;28;20045;-85
2022/05/06 12:23:57;;;;;;;5.88;3.95;;;30.80;38.90;;;;;;5058690;28;20037;-84
2022/05/06 12:26:41;;;;;;;4.97;4.10;;;31.00;38.60;;;;;;5056634;28;20398;-85
2022/05/06 12:29:20;;;;;;;4.60;3.58;;;30.90;38.30;;;;;;5029461;28;20091;-85
2022/05/06 12:31:47;;;;;;;5.20;3.50;;;30.80;39.50;;;;;;5052150;28;20055;-86
2022/05/06 12:34:13;;;;;;;8.77;4.05;;;30.80;39.50;;;;;;5053486;28;20041;-85
2022/05/06 12:36:39;;;;;;;4.80;4.32;;;30.90;39.10;;;;;;5054103;28;20036;-85
2022/05/06 12:39:18;;;;;;;10.65;5.03;;;30.80;39.00;;;;;;5053285;28;20089;-86
2022/05/06 12:41:45;;;;;;;5.60;4.13;;;30.60;39.90;;;;;;5035417;28;20131;-86
2022/05/06 12:44:31;;;;;;;7.40;4.20;;;30.60;40.10;;;;;;5035519;28;20048;-85
2022/05/06 12:50:07;;;;;;;7.78;4.82;;;30.70;38.80;;;;;;5035403;28;20154;-86
2022/05/06 12:52:35;;;;;;;7.20;4.03;;;30.30;40.10;;;;;;5035722;28;20041;-87
2022/05/06 12:55:02;;;;;;;5.05;4.15;;;29.50;42.00;;;;;;5018566;28;20045;-85
2022/05/06 12:57:28;;;;;;;7.15;4.30;;;29.70;41.90;;;;;;5035662;28;20559;-84
2022/05/06 12:59:54;;;;;;;6.00;4.35;;;30.20;40.90;;;;;;5035610;28;20045;-85
2022/05/06 13:02:20;;;;;;;5.78;4.22;;;30.60;39.40;;;;;;5051674;28;20040;-87
2022/05/06 13:04:45;;;;;;;6.93;3.67;;;30.60;39.50;;;;;;5053420;28;20497;-86
2022/05/06 13:07:11;;;;;;;3.65;3.25;;;30.80;39.80;;;;;;5018080;28;20049;-86
2022/05/06 13:09:37;;;;;;;5.78;3.53;;;31.30;38.70;;;;;;5032273;28;20049;-87
2022/05/06 13:12:03;;;;;;;5.85;3.05;;;31.40;38.40;;;;;;5018952;28;20135;-86
2022/05/06 13:14:28;;;;;;;5.25;3.00;;;31.20;38.40;;;;;;5051866;28;20501;-86
2022/05/06 13:16:54;;;;;;;6.05;3.17;;;30.80;39.00;;;;;;5035714;28;20145;-85
2022/05/06 13:19:20;;;;;;;5.03;2.67;;;29.90;39.70;;;;;;5052695;28;20483;-85
2022/05/06 13:21:45;;;;;;;5.88;2.67;;;28.80;41.70;;;;;;5034999;28;20359;-87